OCN1477 ENVA-ENBR
Flight info
| Callsign | OCN1477 |
|---|---|
| Flight time | 0h 57m |
| Altitude | 36000 |
| Route | OSMUM DCT KEKOD DCT LUNUR |
| Aircraft | A320/M-SDE3FGHIRWY/LB1 |
Departure
| Time | 2026-05-06 19:07 |
|---|---|
| Airport | Trondheim Airport, Værnes (ENVA) |
Arrival
| Time | 2026-05-06 20:04 |
|---|---|
| Airport | Bergen Airport, Flesland (ENBR) |
| Time | Latitude | Longitude | Altitude | Speed | Heading |
|---|---|---|---|---|---|
| 2026-05-06 18:43 | 63.45497 | 10.91907 | 39 ft | 0 kts | 180° |
| 2026-05-06 18:58 | 63.45502 | 10.91907 | 39 ft | 2 kts | 179° |
| 2026-05-06 18:59 | 63.45517 | 10.91909 | 37 ft | 2 kts | 188° |
| 2026-05-06 18:59 | 63.45533 | 10.91916 | 34 ft | 2 kts | 201° |
| 2026-05-06 18:59 | 63.45548 | 10.91933 | 37 ft | 2 kts | 232° |
| 2026-05-06 18:59 | 63.45555 | 10.91965 | 35 ft | 2 kts | 265° |
| 2026-05-06 19:00 | 63.45556 | 10.91986 | 39 ft | 1 kts | 271° |
| 2026-05-06 19:00 | 63.45556 | 10.91988 | 39 ft | 0 kts | 271° |
| 2026-05-06 19:01 | 63.45564 | 10.91963 | 39 ft | 2 kts | 328° |
| 2026-05-06 19:02 | 63.45568 | 10.91962 | 39 ft | 2 kts | 343° |
| 2026-05-06 19:02 | 63.45593 | 10.91993 | 40 ft | 4 kts | 66° |
| 2026-05-06 19:02 | 63.45595 | 10.92039 | 40 ft | 2 kts | 88° |
| 2026-05-06 19:02 | 63.45596 | 10.92138 | 41 ft | 12 kts | 89° |
| 2026-05-06 19:03 | 63.45594 | 10.92322 | 41 ft | 12 kts | 92° |
| 2026-05-06 19:03 | 63.45591 | 10.92499 | 42 ft | 11 kts | 92° |
| 2026-05-06 19:03 | 63.45594 | 10.92650 | 44 ft | 8 kts | 88° |
| 2026-05-06 19:03 | 63.45595 | 10.92734 | 45 ft | 3 kts | 88° |
| 2026-05-06 19:04 | 63.45596 | 10.92756 | 45 ft | 0 kts | 88° |
| 2026-05-06 19:04 | 63.45596 | 10.92770 | 44 ft | 6 kts | 88° |
| 2026-05-06 19:04 | 63.45598 | 10.93029 | 49 ft | 20 kts | 97° |
| 2026-05-06 19:04 | 63.45593 | 10.93330 | 54 ft | 17 kts | 89° |
| 2026-05-06 19:05 | 63.45592 | 10.93584 | 55 ft | 16 kts | 91° |
| 2026-05-06 19:05 | 63.45597 | 10.93822 | 53 ft | 15 kts | 75° |
| 2026-05-06 19:05 | 63.45660 | 10.93978 | 56 ft | 12 kts | 44° |
| 2026-05-06 19:05 | 63.45716 | 10.94096 | 58 ft | 9 kts | 36° |
| 2026-05-06 19:06 | 63.45754 | 10.94049 | 56 ft | 6 kts | 292° |
| 2026-05-06 19:06 | 63.45756 | 10.93981 | 56 ft | 5 kts | 269° |
| 2026-05-06 19:06 | 63.45755 | 10.93539 | 54 ft | 67 kts | 270° |
| 2026-05-06 19:06 | 63.45758 | 10.91942 | 39 ft | 134 kts | 270° |
| 2026-05-06 19:07 | 63.45760 | 10.89620 | 421 ft | 153 kts | 266° |
| 2026-05-06 19:07 | 63.45780 | 10.88019 | 873 ft | 158 kts | 270° |
| 2026-05-06 19:07 | 63.45805 | 10.84679 | 1780 ft | 174 kts | 270° |
| 2026-05-06 19:07 | 63.45799 | 10.81847 | 2261 ft | 190 kts | 269° |
| 2026-05-06 19:08 | 63.45773 | 10.78767 | 2778 ft | 205 kts | 270° |
| 2026-05-06 19:08 | 63.45769 | 10.75536 | 3500 ft | 210 kts | 270° |
| 2026-05-06 19:08 | 63.45769 | 10.72285 | 4473 ft | 209 kts | 270° |
| 2026-05-06 19:08 | 63.45770 | 10.68975 | 5245 ft | 218 kts | 270° |
| 2026-05-06 19:09 | 63.45772 | 10.65538 | 6058 ft | 223 kts | 270° |
| 2026-05-06 19:09 | 63.45775 | 10.62039 | 6900 ft | 227 kts | 269° |
| 2026-05-06 19:09 | 63.45764 | 10.58495 | 7729 ft | 229 kts | 265° |
| 2026-05-06 19:09 | 63.45294 | 10.55056 | 8433 ft | 240 kts | 238° |
| 2026-05-06 19:10 | 63.44075 | 10.52393 | 8958 ft | 259 kts | 208° |
| 2026-05-06 19:10 | 63.42341 | 10.50933 | 9692 ft | 271 kts | 200° |
| 2026-05-06 19:10 | 63.40522 | 10.49575 | 10343 ft | 285 kts | 200° |
| 2026-05-06 19:10 | 63.38566 | 10.48107 | 10741 ft | 306 kts | 200° |
| 2026-05-06 19:11 | 63.36523 | 10.46565 | 11501 ft | 313 kts | 200° |
| 2026-05-06 19:11 | 63.34440 | 10.44993 | 12308 ft | 319 kts | 200° |
| 2026-05-06 19:11 | 63.32324 | 10.43388 | 13161 ft | 323 kts | 200° |
| 2026-05-06 19:11 | 63.30189 | 10.41761 | 13994 ft | 326 kts | 200° |
| 2026-05-06 19:12 | 63.28027 | 10.40117 | 14728 ft | 330 kts | 200° |
| 2026-05-06 19:12 | 63.25842 | 10.38460 | 15455 ft | 333 kts | 199° |
| 2026-05-06 19:12 | 63.23636 | 10.36795 | 16186 ft | 337 kts | 199° |
| 2026-05-06 19:12 | 63.21402 | 10.35113 | 16915 ft | 341 kts | 199° |
| 2026-05-06 19:13 | 63.19909 | 10.33991 | 17405 ft | 343 kts | 199° |
| 2026-05-06 19:13 | 63.17639 | 10.32285 | 18126 ft | 347 kts | 199° |
| 2026-05-06 19:13 | 63.15312 | 10.30540 | 18773 ft | 350 kts | 199° |
| 2026-05-06 19:13 | 63.13023 | 10.28825 | 19393 ft | 353 kts | 199° |
| 2026-05-06 19:14 | 63.10686 | 10.27069 | 20023 ft | 356 kts | 200° |
| 2026-05-06 19:14 | 63.08299 | 10.25278 | 20655 ft | 360 kts | 200° |
| 2026-05-06 19:14 | 63.05946 | 10.23521 | 21251 ft | 363 kts | 200° |
| 2026-05-06 19:14 | 63.03545 | 10.21732 | 21841 ft | 366 kts | 200° |
| 2026-05-06 19:15 | 63.01126 | 10.19931 | 22435 ft | 369 kts | 200° |
| 2026-05-06 19:15 | 62.98688 | 10.18119 | 23016 ft | 371 kts | 200° |
| 2026-05-06 19:15 | 62.96227 | 10.16298 | 23585 ft | 374 kts | 201° |
| 2026-05-06 19:15 | 62.93754 | 10.14473 | 24039 ft | 377 kts | 201° |
| 2026-05-06 19:16 | 62.91255 | 10.12635 | 24482 ft | 380 kts | 201° |
| 2026-05-06 19:16 | 62.88744 | 10.10789 | 24924 ft | 382 kts | 201° |
| 2026-05-06 19:16 | 62.86230 | 10.08805 | 25362 ft | 384 kts | 206° |
| 2026-05-06 19:16 | 62.83888 | 10.06022 | 25791 ft | 384 kts | 216° |
| 2026-05-06 19:17 | 62.81797 | 10.02384 | 26224 ft | 384 kts | 226° |
| 2026-05-06 19:17 | 62.79919 | 9.98217 | 26645 ft | 386 kts | 227° |
| 2026-05-06 19:17 | 62.78031 | 9.94009 | 26994 ft | 391 kts | 227° |
| 2026-05-06 19:17 | 62.76104 | 9.89719 | 27110 ft | 400 kts | 227° |
| 2026-05-06 19:18 | 62.74136 | 9.85343 | 27258 ft | 408 kts | 227° |
| 2026-05-06 19:18 | 62.72123 | 9.80888 | 27378 ft | 416 kts | 227° |
| 2026-05-06 19:18 | 62.70072 | 9.76375 | 27534 ft | 423 kts | 227° |
| 2026-05-06 19:18 | 62.67990 | 9.71813 | 27778 ft | 426 kts | 227° |
| 2026-05-06 19:19 | 62.65888 | 9.67227 | 28086 ft | 429 kts | 227° |
| 2026-05-06 19:19 | 62.63776 | 9.62622 | 28437 ft | 431 kts | 227° |
| 2026-05-06 19:19 | 62.61651 | 9.57988 | 28740 ft | 434 kts | 227° |
| 2026-05-06 19:19 | 62.59520 | 9.53346 | 29159 ft | 434 kts | 227° |
| 2026-05-06 19:20 | 62.57392 | 9.48721 | 29603 ft | 433 kts | 227° |
| 2026-05-06 19:20 | 62.55265 | 9.44106 | 30036 ft | 432 kts | 227° |
| 2026-05-06 19:20 | 62.53137 | 9.39498 | 30409 ft | 432 kts | 227° |
| 2026-05-06 19:20 | 62.51013 | 9.34907 | 30739 ft | 432 kts | 227° |
| 2026-05-06 19:21 | 62.48888 | 9.30323 | 31121 ft | 431 kts | 227° |
| 2026-05-06 19:21 | 62.46767 | 9.25756 | 31476 ft | 430 kts | 227° |
| 2026-05-06 19:21 | 62.44646 | 9.21202 | 31814 ft | 430 kts | 227° |
| 2026-05-06 19:21 | 62.42515 | 9.16644 | 32153 ft | 431 kts | 227° |
| 2026-05-06 19:22 | 62.40388 | 9.12098 | 32481 ft | 431 kts | 227° |
| 2026-05-06 19:22 | 62.38257 | 9.07556 | 32814 ft | 431 kts | 227° |
| 2026-05-06 19:22 | 62.36116 | 9.03001 | 32963 ft | 432 kts | 227° |
| 2026-05-06 19:23 | 62.31840 | 8.93918 | 32981 ft | 432 kts | 227° |
| 2026-05-06 19:23 | 62.27558 | 8.84866 | 32984 ft | 432 kts | 226° |
| 2026-05-06 19:24 | 62.23274 | 8.75854 | 32975 ft | 430 kts | 226° |
| 2026-05-06 19:24 | 62.18994 | 8.66917 | 32981 ft | 430 kts | 226° |
| 2026-05-06 19:25 | 62.14712 | 8.57979 | 32978 ft | 430 kts | 226° |
| 2026-05-06 19:25 | 62.10450 | 8.49117 | 32985 ft | 430 kts | 226° |
| 2026-05-06 19:26 | 62.06158 | 8.40226 | 32983 ft | 430 kts | 226° |
| 2026-05-06 19:26 | 62.01856 | 8.31359 | 32983 ft | 430 kts | 226° |
| 2026-05-06 19:27 | 61.97546 | 8.22514 | 32948 ft | 430 kts | 226° |
| 2026-05-06 19:27 | 61.93246 | 8.13734 | 32986 ft | 428 kts | 226° |
| 2026-05-06 19:28 | 61.88953 | 8.04996 | 32992 ft | 428 kts | 226° |
| 2026-05-06 19:28 | 61.84651 | 7.96286 | 32992 ft | 428 kts | 226° |
| 2026-05-06 19:29 | 61.80339 | 7.87589 | 32995 ft | 428 kts | 226° |
| 2026-05-06 19:29 | 61.76017 | 7.78884 | 32992 ft | 430 kts | 226° |
| 2026-05-06 19:30 | 61.71674 | 7.70186 | 32993 ft | 431 kts | 226° |
| 2026-05-06 19:30 | 61.67323 | 7.61535 | 32996 ft | 429 kts | 226° |
| 2026-05-06 19:31 | 61.62969 | 7.52994 | 32995 ft | 428 kts | 225° |
| 2026-05-06 19:31 | 61.56321 | 7.40467 | 32143 ft | 426 kts | 225° |
| 2026-05-06 19:32 | 61.54106 | 7.36333 | 31247 ft | 427 kts | 225° |
| 2026-05-06 19:32 | 61.51886 | 7.32188 | 30387 ft | 427 kts | 225° |
| 2026-05-06 19:32 | 61.49675 | 7.28055 | 29475 ft | 426 kts | 225° |
| 2026-05-06 19:32 | 61.47464 | 7.23924 | 28411 ft | 426 kts | 225° |
| 2026-05-06 19:33 | 61.45251 | 7.19792 | 27273 ft | 427 kts | 225° |
| 2026-05-06 19:33 | 61.43033 | 7.15649 | 26116 ft | 428 kts | 225° |
| 2026-05-06 19:33 | 61.40807 | 7.11498 | 24999 ft | 430 kts | 225° |
| 2026-05-06 19:33 | 61.38581 | 7.07362 | 24156 ft | 425 kts | 225° |
| 2026-05-06 19:34 | 61.36378 | 7.03283 | 23544 ft | 422 kts | 225° |
| 2026-05-06 19:34 | 61.34189 | 6.99240 | 22872 ft | 419 kts | 225° |
| 2026-05-06 19:34 | 61.32048 | 6.95295 | 22184 ft | 415 kts | 225° |
| 2026-05-06 19:34 | 61.29898 | 6.91342 | 21549 ft | 411 kts | 225° |
| 2026-05-06 19:35 | 61.27734 | 6.87363 | 20962 ft | 409 kts | 225° |
| 2026-05-06 19:35 | 61.25608 | 6.83458 | 20396 ft | 406 kts | 224° |
| 2026-05-06 19:35 | 61.23523 | 6.79640 | 19867 ft | 404 kts | 224° |
| 2026-05-06 19:35 | 61.21413 | 6.75781 | 19373 ft | 403 kts | 224° |
| 2026-05-06 19:36 | 61.19317 | 6.71955 | 18887 ft | 401 kts | 224° |
| 2026-05-06 19:36 | 61.17229 | 6.68149 | 18402 ft | 399 kts | 223° |
| 2026-05-06 19:36 | 61.15150 | 6.64368 | 17846 ft | 396 kts | 224° |
| 2026-05-06 19:36 | 61.13086 | 6.60624 | 17302 ft | 393 kts | 224° |
| 2026-05-06 19:37 | 61.11033 | 6.56908 | 16776 ft | 391 kts | 224° |
| 2026-05-06 19:37 | 61.08988 | 6.53213 | 16298 ft | 389 kts | 223° |
| 2026-05-06 19:37 | 61.06952 | 6.49539 | 15807 ft | 388 kts | 223° |
| 2026-05-06 19:37 | 61.05610 | 6.47117 | 15487 ft | 386 kts | 223° |
| 2026-05-06 19:38 | 61.02951 | 6.42332 | 14880 ft | 366 kts | 223° |
| 2026-05-06 19:38 | 61.01085 | 6.38988 | 14710 ft | 348 kts | 223° |
| 2026-05-06 19:38 | 60.99317 | 6.35823 | 14582 ft | 334 kts | 223° |
| 2026-05-06 19:38 | 60.97632 | 6.32819 | 14459 ft | 306 kts | 223° |
| 2026-05-06 19:39 | 60.96082 | 6.30063 | 14331 ft | 283 kts | 223° |
| 2026-05-06 19:39 | 60.94644 | 6.27500 | 14201 ft | 264 kts | 223° |
| 2026-05-06 19:39 | 60.93295 | 6.25086 | 14087 ft | 254 kts | 224° |
| 2026-05-06 19:39 | 60.91970 | 6.22713 | 14025 ft | 251 kts | 223° |
| 2026-05-06 19:40 | 60.90653 | 6.20363 | 14026 ft | 251 kts | 223° |
| 2026-05-06 19:40 | 60.89340 | 6.18028 | 13785 ft | 250 kts | 223° |
| 2026-05-06 19:40 | 60.88022 | 6.15689 | 13436 ft | 251 kts | 223° |
| 2026-05-06 19:40 | 60.86703 | 6.13347 | 13131 ft | 250 kts | 223° |
| 2026-05-06 19:41 | 60.85390 | 6.11016 | 12846 ft | 249 kts | 223° |
| 2026-05-06 19:41 | 60.84082 | 6.08695 | 12557 ft | 248 kts | 223° |
| 2026-05-06 19:41 | 60.82752 | 6.06457 | 12273 ft | 247 kts | 220° |
| 2026-05-06 19:41 | 60.81427 | 6.04225 | 12000 ft | 245 kts | 230° |
| 2026-05-06 19:42 | 60.80659 | 6.01218 | 11712 ft | 239 kts | 261° |
| 2026-05-06 19:42 | 60.80781 | 5.97882 | 11413 ft | 238 kts | 289° |
| 2026-05-06 19:42 | 60.81699 | 5.95082 | 11096 ft | 241 kts | 317° |
| 2026-05-06 19:42 | 60.83184 | 5.93511 | 10750 ft | 246 kts | 346° |
| 2026-05-06 19:43 | 60.84895 | 5.93636 | 10443 ft | 251 kts | 15° |
| 2026-05-06 19:43 | 60.86499 | 5.95092 | 10097 ft | 252 kts | 22° |
| 2026-05-06 19:43 | 60.88080 | 5.96644 | 10035 ft | 253 kts | 23° |
| 2026-05-06 19:43 | 60.89671 | 5.98218 | 10043 ft | 255 kts | 23° |
| 2026-05-06 19:44 | 60.91271 | 5.99775 | 10051 ft | 254 kts | 21° |
| 2026-05-06 19:44 | 60.92824 | 6.01529 | 10039 ft | 258 kts | 38° |
| 2026-05-06 19:44 | 60.93904 | 6.04465 | 10038 ft | 261 kts | 66° |
| 2026-05-06 19:44 | 60.94231 | 6.08116 | 10026 ft | 262 kts | 95° |
| 2026-05-06 19:45 | 60.93733 | 6.11671 | 10026 ft | 260 kts | 122° |
| 2026-05-06 19:45 | 60.92535 | 6.14365 | 10025 ft | 255 kts | 150° |
| 2026-05-06 19:45 | 60.90915 | 6.15689 | 10026 ft | 249 kts | 176° |
| 2026-05-06 19:45 | 60.89218 | 6.15457 | 10019 ft | 244 kts | 201° |
| 2026-05-06 19:46 | 60.87737 | 6.13854 | 10028 ft | 241 kts | 218° |
| 2026-05-06 19:46 | 60.86360 | 6.11890 | 10025 ft | 241 kts | 217° |
| 2026-05-06 19:46 | 60.84981 | 6.09933 | 10028 ft | 241 kts | 217° |
| 2026-05-06 19:46 | 60.83621 | 6.07928 | 10024 ft | 240 kts | 223° |
| 2026-05-06 19:47 | 60.82478 | 6.05455 | 10027 ft | 239 kts | 228° |
| 2026-05-06 19:47 | 60.81127 | 6.03467 | 10025 ft | 242 kts | 208° |
| 2026-05-06 19:47 | 60.79600 | 6.01989 | 10041 ft | 243 kts | 208° |
| 2026-05-06 19:47 | 60.78069 | 6.00529 | 10040 ft | 243 kts | 207° |
| 2026-05-06 19:48 | 60.76533 | 5.99075 | 10039 ft | 243 kts | 207° |
| 2026-05-06 19:48 | 60.74997 | 5.97629 | 10041 ft | 243 kts | 207° |
| 2026-05-06 19:48 | 60.73458 | 5.96185 | 10035 ft | 243 kts | 207° |
| 2026-05-06 19:48 | 60.71925 | 5.94743 | 10040 ft | 243 kts | 207° |
| 2026-05-06 19:49 | 60.70388 | 5.93296 | 10037 ft | 243 kts | 207° |
| 2026-05-06 19:49 | 60.68848 | 5.91852 | 10034 ft | 243 kts | 207° |
| 2026-05-06 19:49 | 60.67328 | 5.90436 | 10036 ft | 243 kts | 207° |
| 2026-05-06 19:49 | 60.65796 | 5.89009 | 9803 ft | 241 kts | 207° |
| 2026-05-06 19:50 | 60.64268 | 5.87585 | 9438 ft | 241 kts | 207° |
| 2026-05-06 19:50 | 60.62730 | 5.86151 | 9092 ft | 240 kts | 207° |
| 2026-05-06 19:50 | 60.61244 | 5.84723 | 8751 ft | 239 kts | 209° |
| 2026-05-06 19:50 | 60.59763 | 5.83197 | 8418 ft | 239 kts | 210° |
| 2026-05-06 19:51 | 60.58291 | 5.81650 | 8097 ft | 237 kts | 210° |
| 2026-05-06 19:51 | 60.56875 | 5.79980 | 7783 ft | 234 kts | 219° |
| 2026-05-06 19:51 | 60.55711 | 5.77715 | 7461 ft | 230 kts | 233° |
| 2026-05-06 19:51 | 60.54864 | 5.74976 | 7144 ft | 228 kts | 247° |
| 2026-05-06 19:52 | 60.54369 | 5.71942 | 7000 ft | 226 kts | 260° |
| 2026-05-06 19:52 | 60.54121 | 5.68786 | 6994 ft | 227 kts | 261° |
| 2026-05-06 19:52 | 60.53992 | 5.65597 | 6998 ft | 227 kts | 276° |
| 2026-05-06 19:52 | 60.54467 | 5.62565 | 6998 ft | 227 kts | 300° |
| 2026-05-06 19:53 | 60.55528 | 5.60203 | 7002 ft | 230 kts | 324° |
| 2026-05-06 19:53 | 60.56988 | 5.58847 | 7002 ft | 232 kts | 339° |
| 2026-05-06 19:53 | 60.58505 | 5.57713 | 6999 ft | 232 kts | 332° |
| 2026-05-06 19:53 | 60.59864 | 5.55978 | 6999 ft | 230 kts | 319° |
| 2026-05-06 19:54 | 60.61097 | 5.53901 | 7000 ft | 230 kts | 319° |
| 2026-05-06 19:54 | 60.62331 | 5.51840 | 7001 ft | 230 kts | 319° |
| 2026-05-06 19:54 | 60.63485 | 5.49597 | 7003 ft | 229 kts | 307° |
| 2026-05-06 19:54 | 60.64347 | 5.46888 | 7008 ft | 228 kts | 298° |
| 2026-05-06 19:55 | 60.65147 | 5.44107 | 7012 ft | 227 kts | 298° |
| 2026-05-06 19:55 | 60.65949 | 5.41322 | 6996 ft | 227 kts | 296° |
| 2026-05-06 19:55 | 60.66411 | 5.38305 | 6682 ft | 223 kts | 272° |
| 2026-05-06 19:55 | 60.66172 | 5.35230 | 6315 ft | 221 kts | 246° |
| 2026-05-06 19:56 | 60.65628 | 5.33501 | 6180 ft | 217 kts | 228° |
| 2026-05-06 19:56 | 60.63996 | 5.31359 | 5985 ft | 207 kts | 207° |
| 2026-05-06 19:56 | 60.62740 | 5.30183 | 5859 ft | 190 kts | 207° |
| 2026-05-06 19:56 | 60.61940 | 5.29430 | 5613 ft | 186 kts | 207° |
| 2026-05-06 19:57 | 60.60445 | 5.28019 | 5349 ft | 170 kts | 207° |
| 2026-05-06 19:57 | 60.59392 | 5.27024 | 5112 ft | 165 kts | 207° |
| 2026-05-06 19:57 | 60.58696 | 5.26367 | 4880 ft | 163 kts | 207° |
| 2026-05-06 19:57 | 60.57667 | 5.25396 | 4512 ft | 163 kts | 207° |
| 2026-05-06 19:58 | 60.56641 | 5.24430 | 4165 ft | 162 kts | 207° |
| 2026-05-06 19:58 | 60.55617 | 5.23469 | 3815 ft | 162 kts | 207° |
| 2026-05-06 19:58 | 60.54599 | 5.22514 | 3470 ft | 161 kts | 206° |
| 2026-05-06 19:58 | 60.53582 | 5.21561 | 3109 ft | 161 kts | 206° |
| 2026-05-06 19:59 | 60.52542 | 5.20585 | 2999 ft | 172 kts | 206° |
| 2026-05-06 19:59 | 60.51443 | 5.19552 | 3006 ft | 177 kts | 206° |
| 2026-05-06 19:59 | 60.50309 | 5.18485 | 3005 ft | 181 kts | 206° |
| 2026-05-06 19:59 | 60.49164 | 5.17410 | 3005 ft | 182 kts | 206° |
| 2026-05-06 20:00 | 60.48024 | 5.16374 | 3004 ft | 182 kts | 201° |
| 2026-05-06 20:00 | 60.46775 | 5.15974 | 3010 ft | 184 kts | 179° |
| 2026-05-06 20:00 | 60.45505 | 5.16346 | 3008 ft | 185 kts | 172° |
| 2026-05-06 20:00 | 60.44238 | 5.16780 | 2967 ft | 185 kts | 172° |
| 2026-05-06 20:01 | 60.43003 | 5.17201 | 2806 ft | 177 kts | 172° |
| 2026-05-06 20:01 | 60.41801 | 5.17609 | 2579 ft | 172 kts | 172° |
| 2026-05-06 20:01 | 60.40653 | 5.17998 | 2368 ft | 161 kts | 172° |
| 2026-05-06 20:01 | 60.39571 | 5.18364 | 2136 ft | 155 kts | 172° |
| 2026-05-06 20:02 | 60.38537 | 5.18713 | 1920 ft | 146 kts | 172° |
| 2026-05-06 20:02 | 60.37567 | 5.19041 | 1730 ft | 138 kts | 172° |
| 2026-05-06 20:02 | 60.36631 | 5.19356 | 1529 ft | 135 kts | 172° |
| 2026-05-06 20:02 | 60.35706 | 5.19677 | 1341 ft | 136 kts | 171° |
| 2026-05-06 20:03 | 60.34767 | 5.19987 | 1145 ft | 137 kts | 172° |
| 2026-05-06 20:03 | 60.33832 | 5.20306 | 934 ft | 135 kts | 169° |
| 2026-05-06 20:03 | 60.32911 | 5.20634 | 734 ft | 134 kts | 170° |
| 2026-05-06 20:03 | 60.31998 | 5.20941 | 594 ft | 133 kts | 170° |
| 2026-05-06 20:04 | 60.31087 | 5.21241 | 355 ft | 132 kts | 170° |
| 2026-05-06 20:04 | 60.30195 | 5.21531 | 179 ft | 129 kts | 170° |
| 2026-05-06 20:04 | 60.29405 | 5.21797 | 154 ft | 95 kts | 171° |
| 2026-05-06 20:04 | 60.28992 | 5.21934 | 163 ft | 24 kts | 172° |
| 2026-05-06 20:05 | 60.28913 | 5.22064 | 164 ft | 15 kts | 84° |
| 2026-05-06 20:05 | 60.28925 | 5.22188 | 168 ft | 0 kts | 87° |
| 2026-05-06 20:05 | 60.28925 | 5.22190 | 168 ft | 2 kts | 87° |
| 2026-05-06 20:06 | 60.28902 | 5.22280 | 171 ft | 9 kts | 152° |
| 2026-05-06 20:06 | 60.28846 | 5.22305 | 171 ft | 8 kts | 169° |
| 2026-05-06 20:06 | 60.28807 | 5.22320 | 171 ft | 3 kts | 169° |
| 2026-05-06 20:06 | 60.28781 | 5.22329 | 170 ft | 6 kts | 169° |
| 2026-05-06 20:07 | 60.28699 | 5.22371 | 169 ft | 10 kts | 136° |
| 2026-05-06 20:07 | 60.28684 | 5.22456 | 171 ft | 4 kts | 114° |
| 2026-05-06 20:07 | 60.28668 | 5.22551 | 172 ft | 13 kts | 87° |
| 2026-05-06 20:07 | 60.28680 | 5.22702 | 172 ft | 5 kts | 86° |
| 2026-05-06 20:08 | 60.28666 | 5.22752 | 172 ft | 4 kts | 144° |
| 2026-05-06 20:08 | 60.28654 | 5.22782 | 172 ft | 1 kts | 102° |
| 2026-05-06 20:08 | 60.28655 | 5.22833 | 173 ft | 4 kts | 82° |
| 2026-05-06 20:08 | 60.28657 | 5.22862 | 175 ft | 3 kts | 81° |
| 2026-05-06 20:09 | 60.28661 | 5.22923 | 176 ft | 0 kts | 82° |
| 2026-05-06 20:09 | 60.28662 | 5.22932 | 176 ft | 0 kts | 81° |